createdAt,value
2022-12-09T00:00:38.807Z,17.87
2022-12-09T01:03:06.361Z,18.44
2022-12-09T01:04:25.599Z,16.94
2022-12-09T01:22:55.779Z,13.73
2022-12-09T01:41:47.328Z,15.31
2022-12-09T01:50:25.327Z,12.31
2022-12-09T01:51:20.852Z,12.75
2022-12-09T01:52:26.414Z,13.13
2022-12-09T01:53:33.334Z,13.56
2022-12-09T01:54:43.108Z,11.44
2022-12-09T01:55:50.033Z,12.50
2022-12-09T01:56:55.512Z,12.75
2022-12-09T01:58:00.199Z,16.31
2022-12-09T01:59:14.751Z,13.62
2022-12-09T02:00:20.367Z,13.88
2022-12-09T02:01:24.711Z,12.94
2022-12-09T02:02:30.536Z,15.13
2022-12-09T02:03:35.245Z,13.38
2022-12-09T02:04:44.763Z,13.88
2022-12-09T02:05:51.264Z,11.81
2022-12-09T02:06:56.849Z,13.25
2022-12-09T02:08:01.367Z,15.63
2022-12-09T02:09:07.461Z,14.67
2022-12-09T02:10:15.247Z,12.13
2022-12-09T02:11:45.290Z,14.63
2022-12-09T02:12:53.933Z,13.56
2022-12-09T02:14:14.668Z,13.50
2022-12-09T02:15:26.137Z,13.94
2022-12-09T02:16:34.799Z,13.53
2022-12-09T02:17:51.480Z,15.06
2022-12-09T02:20:40.306Z,15.06
2022-12-09T02:21:47.842Z,16.00
2022-12-09T02:23:06.796Z,13.19
2022-12-09T02:24:20.106Z,12.63
2022-12-09T07:09:19.949Z,20.27
2022-12-09T07:10:29.051Z,21.25
2022-12-09T07:11:33.621Z,21.62
2022-12-09T07:12:41.397Z,21.12
2022-12-09T07:13:47.403Z,21.69
2022-12-09T07:14:51.615Z,23.13
2022-12-09T08:43:15.276Z,21.19
2022-12-09T08:44:21.019Z,22.19
2022-12-09T08:45:25.562Z,21.06
2022-12-09T08:46:31.537Z,19.60
2022-12-09T14:23:04.750Z,23.25
2022-12-09T14:24:14.406Z,23.75
2022-12-09T14:25:29.942Z,25.19
2022-12-09T14:26:44.818Z,25.00
2022-12-09T14:28:16.035Z,26.69
2022-12-09T14:29:48.282Z,27.06
2022-12-09T14:31:08.027Z,26.00
2022-12-09T14:32:23.052Z,28.93
2022-12-09T14:33:35.908Z,27.00
2022-12-09T14:34:43.186Z,29.69
2022-12-09T14:35:50.079Z,29.44
2022-12-09T14:39:53.741Z,32.06
2022-12-09T14:41:17.738Z,26.07
2022-12-09T14:42:27.535Z,37.06
2022-12-09T14:43:48.611Z,30.25
2022-12-09T14:45:12.411Z,34.40
2022-12-09T14:46:24.015Z,32.69
2022-12-09T14:47:31.359Z,24.44
2022-12-09T14:48:40.287Z,28.87
2022-12-09T15:48:01.358Z,27.37
2022-12-09T15:49:20.387Z,30.25
2022-12-09T15:52:00.099Z,29.75
2022-12-09T15:53:33.825Z,31.37
2022-12-09T15:54:43.197Z,30.69
2022-12-09T15:55:51.697Z,27.69
2022-12-09T15:57:05.176Z,27.50
2022-12-09T15:58:50.415Z,28.25
2022-12-09T15:59:42.954Z,28.27
2022-12-09T16:00:51.688Z,26.20
2022-12-09T16:02:01.412Z,21.00
2022-12-09T16:03:18.237Z,26.44
2022-12-09T16:04:25.437Z,25.75
2022-12-09T16:05:34.913Z,29.27
2022-12-09T16:06:38.126Z,27.19
2022-12-09T16:07:54.068Z,27.81
2022-12-09T16:09:05.163Z,28.47
2022-12-09T16:10:17.102Z,28.56
2022-12-09T16:12:39.123Z,34.20
2022-12-09T16:13:20.361Z,43.20
2022-12-09T16:14:25.424Z,39.50
2022-12-09T17:20:50.894Z,25.73
2022-12-09T17:23:42.232Z,31.07
2022-12-09T17:59:36.448Z,28.75
